Time;durP1;ratioP1;P1;durP2;ratioP2;P2;SDS_P1;SDS_P2;PMS_P1;PMS_P2;Temp;Humidity;BMP_temperature;BMP_pressure;BME280_temperature;BME280_humidity;BME280_pressure;Samples;Min_cycle;Max_cycle;Signal;HPM_P1;HPM_P2
2023/08/20 00:01:28;;;;;;;6.47;3.65;;;17.90;99.90;;;;;;5050055;28;20228;-68
2023/08/20 00:03:55;;;;;;;9.07;4.22;;;17.80;99.90;;;;;;5057098;28;20189;-68
2023/08/20 00:06:25;;;;;;;7.32;4.18;;;17.80;99.90;;;;;;5067562;28;20243;-68
2023/08/20 00:08:52;;;;;;;7.97;4.20;;;17.70;99.90;;;;;;5028370;28;20200;-68
2023/08/20 00:11:19;;;;;;;5.25;4.07;;;17.70;99.90;;;;;;5065707;28;20192;-68
2023/08/20 00:13:46;;;;;;;9.07;4.95;;;17.80;99.90;;;;;;5070166;28;20200;-68
2023/08/20 00:16:13;;;;;;;6.80;4.72;;;17.70;99.90;;;;;;5065702;28;20218;-68
2023/08/20 00:18:40;;;;;;;6.25;4.03;;;17.70;99.90;;;;;;5053871;28;20575;-68
2023/08/20 00:21:08;;;;;;;6.75;4.32;;;17.70;99.90;;;;;;5063897;28;20226;-68
2023/08/20 00:23:37;;;;;;;6.47;4.63;;;17.80;99.90;;;;;;5028456;28;20208;-68
2023/08/20 00:26:04;;;;;;;10.07;4.20;;;17.80;99.90;;;;;;5063844;28;20850;-68
2023/08/20 00:28:33;;;;;;;6.07;4.13;;;17.70;99.90;;;;;;5066116;28;20196;-68
2023/08/20 00:31:00;;;;;;;7.63;4.53;;;17.70;99.90;;;;;;5059039;28;20189;-69
2023/08/20 00:33:26;;;;;;;7.85;4.43;;;17.60;99.90;;;;;;5053788;28;20211;-68
2023/08/20 00:35:53;;;;;;;15.23;4.32;;;17.60;99.90;;;;;;5062366;28;20193;-68
2023/08/20 00:38:20;;;;;;;5.28;3.88;;;17.60;99.90;;;;;;5030634;28;20215;-68
2023/08/20 00:40:48;;;;;;;14.10;4.93;;;17.50;99.90;;;;;;5064811;28;20211;-68
2023/08/20 00:43:15;;;;;;;7.80;4.80;;;17.50;99.90;;;;;;5060681;28;20839;-68
2023/08/20 00:45:42;;;;;;;6.25;4.43;;;17.60;99.90;;;;;;5062324;28;21286;-68
2023/08/20 00:48:11;;;;;;;6.93;4.30;;;17.50;99.90;;;;;;5061572;28;21548;-68
2023/08/20 00:50:38;;;;;;;8.70;4.72;;;17.50;99.90;;;;;;5063720;28;21001;-68
2023/08/20 00:53:06;;;;;;;7.45;4.40;;;17.50;99.90;;;;;;5062693;28;20709;-68
2023/08/20 00:55:33;;;;;;;7.45;4.25;;;17.50;99.90;;;;;;5027132;28;20209;-68
2023/08/20 00:58:01;;;;;;;9.82;4.65;;;17.40;99.90;;;;;;5065877;28;20396;-68
2023/08/20 01:00:28;;;;;;;7.82;4.45;;;17.50;99.90;;;;;;5066204;28;20210;-68
2023/08/20 01:02:55;;;;;;;6.88;4.03;;;17.40;99.90;;;;;;5056304;28;20312;-68
2023/08/20 01:05:22;;;;;;;4.45;4.05;;;17.40;99.90;;;;;;5063500;28;20572;-68
2023/08/20 01:08:05;;;;;;;9.45;4.03;;;17.40;99.90;;;;;;5061195;28;20228;-68
2023/08/20 01:10:40;;;;;;;6.78;4.18;;;17.40;99.90;;;;;;5028322;28;20211;-68
2023/08/20 01:13:09;;;;;;;6.35;4.20;;;17.30;99.90;;;;;;5060346;28;20750;-68
2023/08/20 01:15:36;;;;;;;6.97;4.20;;;17.30;99.90;;;;;;5066431;28;20205;-68
2023/08/20 01:18:03;;;;;;;5.55;4.18;;;17.30;99.90;;;;;;5053166;28;20868;-68
2023/08/20 01:20:34;;;;;;;6.65;3.95;;;17.50;99.90;;;;;;5065012;28;20223;-68
2023/08/20 01:23:39;;;;;;;10.88;3.97;;;17.30;99.90;;;;;;5050978;28;20289;-68
2023/08/20 01:26:18;;;;;;;5.78;3.90;;;17.20;99.90;;;;;;5024471;28;20215;-68
2023/08/20 01:28:47;;;;;;;3.58;2.90;;;17.20;99.90;;;;;;5064080;28;20189;-68
2023/08/20 01:31:15;;;;;;;2.70;2.50;;;17.20;99.90;;;;;;5062182;28;20196;-68
2023/08/20 01:33:42;;;;;;;6.20;3.20;;;17.20;99.90;;;;;;5067751;28;20213;-68
2023/08/20 01:36:10;;;;;;;2.40;2.20;;;17.20;99.90;;;;;;5064225;28;20197;-68
2023/08/20 01:38:37;;;;;;;2.40;2.20;;;17.10;99.90;;;;;;5046854;28;20433;-68
2023/08/20 01:41:04;;;;;;;3.40;2.00;;;17.10;99.90;;;;;;5023599;28;20207;-68
2023/08/20 01:43:31;;;;;;;5.50;2.15;;;17.10;99.90;;;;;;5052793;28;20204;-68
2023/08/20 01:45:59;;;;;;;3.65;2.20;;;17.00;99.90;;;;;;5059846;28;20210;-68
2023/08/20 01:48:26;;;;;;;2.25;2.05;;;17.10;99.90;;;;;;5055061;28;20912;-68
2023/08/20 01:50:53;;;;;;;2.75;2.50;;;17.00;99.90;;;;;;5064588;28;20990;-68
2023/08/20 01:53:20;;;;;;;6.88;2.88;;;17.00;99.90;;;;;;5055348;28;20396;-68
2023/08/20 01:55:47;;;;;;;5.45;2.95;;;16.90;99.90;;;;;;5063333;28;20333;-68
2023/08/20 01:58:14;;;;;;;5.82;3.13;;;16.90;99.90;;;;;;5024747;28;20224;-68
2023/08/20 02:00:41;;;;;;;4.28;3.00;;;;;;;;;;5052571;28;20324;-68
2023/08/20 02:03:09;;;;;;;5.90;2.42;;;16.90;99.90;;;;;;5060625;28;20208;-68
2023/08/20 02:05:37;;;;;;;3.58;2.10;;;16.90;99.90;;;;;;5062596;28;20404;-68
2023/08/20 02:08:05;;;;;;;2.60;2.40;;;16.80;99.90;;;;;;5063143;28;20586;-68
2023/08/20 02:10:31;;;;;;;3.03;2.13;;;16.80;99.90;;;;;;5058786;28;20518;-68
2023/08/20 02:12:58;;;;;;;2.30;2.03;;;16.80;99.90;;;;;;5024022;28;20208;-68
2023/08/20 02:15:25;;;;;;;2.53;2.28;;;16.80;99.90;;;;;;5050723;28;20188;-68
2023/08/20 02:17:52;;;;;;;2.42;2.20;;;16.80;99.90;;;;;;5059444;28;20654;-68
2023/08/20 02:20:20;;;;;;;5.65;2.20;;;16.80;99.90;;;;;;5061220;28;20279;-68
2023/08/20 02:22:47;;;;;;;3.67;2.10;;;16.80;99.90;;;;;;5061788;28;20201;-68
2023/08/20 02:25:13;;;;;;;3.15;2.85;;;16.70;99.90;;;;;;5058746;28;20201;-68
2023/08/20 02:27:39;;;;;;;2.15;1.90;;;16.60;99.90;;;;;;5060407;28;20200;-68
2023/08/20 02:30:07;;;;;;;3.97;2.20;;;16.60;99.90;;;;;;5025184;28;20579;-68
2023/08/20 02:32:34;;;;;;;2.40;2.00;;;16.60;99.90;;;;;;5056181;28;20595;-68
2023/08/20 02:35:02;;;;;;;2.05;1.85;;;16.50;99.90;;;;;;5068055;28;20192;-67
2023/08/20 02:37:31;;;;;;;2.60;1.67;;;16.50;99.90;;;;;;5062031;28;20204;-68
2023/08/20 02:39:57;;;;;;;2.13;1.80;;;16.40;99.90;;;;;;5067651;28;20228;-68
2023/08/20 02:42:24;;;;;;;1.80;1.65;;;16.30;99.90;;;;;;5064137;28;20288;-68
2023/08/20 02:44:51;;;;;;;4.13;1.95;;;16.30;99.90;;;;;;5035094;28;20996;-68
2023/08/20 02:47:18;;;;;;;2.10;1.73;;;16.40;99.90;;;;;;5034728;28;20885;-68
2023/08/20 02:49:45;;;;;;;2.67;2.00;;;16.20;99.90;;;;;;5060723;28;20219;-67
2023/08/20 02:52:11;;;;;;;3.10;1.80;;;16.40;99.90;;;;;;5054142;28;22103;-68
2023/08/20 02:54:39;;;;;;;2.75;1.90;;;16.40;99.90;;;;;;5064196;28;20296;-68
2023/08/20 02:57:06;;;;;;;4.43;2.25;;;16.30;99.90;;;;;;5066474;28;20766;-68
2023/08/20 02:59:34;;;;;;;6.03;3.60;;;16.30;99.90;;;;;;5036277;28;20246;-68
2023/08/20 03:02:01;;;;;;;6.10;2.40;;;16.40;99.90;;;;;;5058821;28;20334;-68
2023/08/20 03:04:28;;;;;;;3.08;2.28;;;16.30;99.90;;;;;;5067099;28;20197;-68
2023/08/20 03:06:55;;;;;;;2.63;2.35;;;16.20;99.90;;;;;;5061478;28;20314;-68
2023/08/20 03:09:22;;;;;;;3.92;2.33;;;16.20;99.90;;;;;;5069314;28;20207;-67
2023/08/20 03:11:50;;;;;;;5.10;2.10;;;16.20;99.90;;;;;;5052636;28;20595;-68
2023/08/20 03:14:17;;;;;;;1.65;1.27;;;16.20;99.90;;;;;;5064093;28;20356;-68
2023/08/20 03:16:44;;;;;;;1.50;1.40;;;16.00;99.90;;;;;;5026742;28;20220;-68
2023/08/20 03:19:10;;;;;;;2.40;1.60;;;16.10;99.90;;;;;;5057989;28;20437;-68
2023/08/20 03:21:37;;;;;;;7.32;1.80;;;16.10;99.90;;;;;;5062707;28;20201;-68
2023/08/20 03:24:05;;;;;;;1.75;1.65;;;16.10;99.90;;;;;;5037025;28;21451;-68
2023/08/20 03:26:31;;;;;;;1.60;1.50;;;16.10;99.90;;;;;;5063387;28;20216;-68
2023/08/20 03:29:00;;;;;;;4.07;1.58;;;16.10;99.90;;;;;;5053322;28;20825;-68
2023/08/20 03:31:26;;;;;;;1.65;1.40;;;16.00;99.90;;;;;;5021956;28;20733;-68
2023/08/20 03:33:53;;;;;;;1.50;1.40;;;15.90;99.90;;;;;;5060037;28;20216;-68
2023/08/20 03:36:20;;;;;;;2.00;1.80;;;16.00;99.90;;;;;;5065840;28;20196;-67
2023/08/20 03:38:47;;;;;;;2.28;1.60;;;;;;;;;;5068890;28;20233;-67
2023/08/20 03:41:15;;;;;;;2.72;1.83;;;15.90;99.90;;;;;;5065355;28;20227;-67
2023/08/20 03:43:41;;;;;;;4.05;2.15;;;16.00;99.90;;;;;;5059933;28;20667;-67
2023/08/20 03:46:10;;;;;;;2.67;1.60;;;15.90;99.90;;;;;;5029660;28;20643;-67
2023/08/20 03:48:36;;;;;;;2.38;1.70;;;16.00;99.90;;;;;;5062589;28;20669;-67
2023/08/20 03:51:03;;;;;;;3.83;1.92;;;16.00;99.90;;;;;;5061233;28;20192;-67
2023/08/20 03:53:30;;;;;;;2.30;1.92;;;16.00;99.90;;;;;;5067177;28;20197;-67
2023/08/20 03:55:57;;;;;;;1.95;1.50;;;16.00;99.90;;;;;;5058015;28;20512;-67
2023/08/20 03:58:24;;;;;;;1.60;1.50;;;16.10;99.90;;;;;;5068587;28;20219;-67
2023/08/20 04:00:50;;;;;;;2.35;1.52;;;16.10;99.90;;;;;;5061151;28;20756;-67
2023/08/20 04:03:19;;;;;;;1.73;1.63;;;16.00;99.90;;;;;;5027271;28;20212;-67
2023/08/20 04:05:46;;;;;;;2.47;1.75;;;16.00;99.90;;;;;;5062067;28;20207;-68
2023/08/20 04:08:13;;;;;;;1.75;1.60;;;16.00;99.90;;;;;;5062005;28;20223;-67
2023/08/20 04:10:44;;;;;;;2.10;1.73;;;16.00;99.90;;;;;;5066285;28;20843;-67
2023/08/20 04:13:11;;;;;;;2.40;2.03;;;15.90;99.90;;;;;;5068327;28;20418;-67
2023/08/20 04:15:38;;;;;;;2.97;2.22;;;16.00;99.90;;;;;;5061892;28;20235;-67
2023/08/20 04:18:05;;;;;;;2.17;1.92;;;15.90;99.90;;;;;;5025801;28;20205;-67
2023/08/20 04:20:33;;;;;;;2.70;2.20;;;15.80;99.90;;;;;;5059091;28;20226;-67
2023/08/20 04:23:00;;;;;;;2.55;2.10;;;15.70;99.90;;;;;;5057161;28;20223;-67
2023/08/20 04:25:27;;;;;;;3.33;2.45;;;15.60;99.90;;;;;;5062029;28;20193;-67
2023/08/20 04:27:54;;;;;;;3.85;2.28;;;15.60;99.90;;;;;;5062157;28;20260;-67
2023/08/20 04:30:20;;;;;;;2.22;2.03;;;15.60;99.90;;;;;;5061682;28;20426;-67
2023/08/20 04:32:48;;;;;;;2.60;2.40;;;15.40;99.90;;;;;;5036529;28;20200;-67
2023/08/20 04:35:15;;;;;;;4.55;2.22;;;15.40;99.90;;;;;;5059597;28;20561;-67
2023/08/20 04:37:43;;;;;;;2.72;2.50;;;15.50;99.90;;;;;;5061149;28;20225;-67
2023/08/20 04:40:11;;;;;;;3.50;2.47;;;15.50;99.90;;;;;;5064043;28;20427;-67
2023/08/20 04:42:38;;;;;;;3.42;2.50;;;15.50;99.90;;;;;;5058948;28;20514;-67
2023/08/20 04:45:06;;;;;;;3.25;1.95;;;15.60;99.90;;;;;;5063807;28;20196;-67
2023/08/20 04:47:33;;;;;;;3.50;2.67;;;15.70;99.90;;;;;;5061639;28;20207;-67
2023/08/20 04:50:01;;;;;;;5.53;2.80;;;15.60;99.90;;;;;;5031283;28;20562;-67
2023/08/20 04:52:27;;;;;;;4.43;3.10;;;15.70;99.90;;;;;;5060314;28;20567;-67
2023/08/20 04:54:56;;;;;;;6.43;3.28;;;15.70;99.90;;;;;;5062360;28;20218;-67
2023/08/20 04:57:23;;;;;;;6.72;3.47;;;15.80;99.90;;;;;;5065546;28;20226;-67
2023/08/20 04:59:49;;;;;;;9.98;4.18;;;15.90;99.90;;;;;;5060969;28;20623;-67
2023/08/20 05:02:16;;;;;;;7.22;4.28;;;15.90;99.90;;;;;;5062749;28;20681;-67
2023/08/20 05:04:43;;;;;;;5.10;4.43;;;16.10;99.90;;;;;;5024270;28;20690;-68
2023/08/20 05:07:10;;;;;;;7.10;5.20;;;16.10;99.90;;;;;;5060844;28;20238;-67
2023/08/20 05:09:37;;;;;;;10.40;5.50;;;16.10;99.90;;;;;;5063350;28;20252;-67
2023/08/20 05:12:06;;;;;;;10.77;6.05;;;16.30;99.90;;;;;;5061362;28;20312;-67
2023/08/20 05:14:33;;;;;;;9.60;5.07;;;16.30;99.90;;;;;;5061709;28;20199;-67
2023/08/20 05:17:00;;;;;;;11.50;5.25;;;16.30;99.90;;;;;;5060525;28;20400;-67
2023/08/20 05:19:27;;;;;;;9.57;5.88;;;16.40;99.90;;;;;;5062998;28;20227;-67
2023/08/20 05:21:55;;;;;;;8.70;5.25;;;16.50;99.90;;;;;;5022948;28;20208;-67
2023/08/20 05:24:22;;;;;;;7.95;6.15;;;16.50;99.90;;;;;;5066233;28;20546;-67
2023/08/20 05:27:04;;;;;;;10.50;5.65;;;16.60;99.90;;;;;;5059356;28;20704;-67
2023/08/20 05:29:32;;;;;;;7.20;5.35;;;16.70;99.90;;;;;;5062343;28;20188;-68
2023/08/20 05:31:59;;;;;;;13.35;5.50;;;16.80;99.90;;;;;;5057851;28;20203;-67
2023/08/20 05:34:25;;;;;;;9.07;5.85;;;16.80;99.90;;;;;;5065731;28;20670;-67
2023/08/20 05:36:52;;;;;;;9.60;5.57;;;16.80;99.90;;;;;;5025727;28;20203;-67
2023/08/20 05:39:19;;;;;;;9.18;5.60;;;16.80;99.90;;;;;;5064256;28;20233;-67
2023/08/20 05:41:46;;;;;;;8.35;5.00;;;16.90;99.90;;;;;;5060932;28;20220;-67
2023/08/20 05:44:13;;;;;;;9.48;5.75;;;17.00;99.90;;;;;;5064248;28;20196;-67
2023/08/20 05:46:41;;;;;;;5.88;4.68;;;17.10;99.90;;;;;;5060817;28;20207;-67
2023/08/20 05:49:08;;;;;;;8.43;5.65;;;17.10;99.90;;;;;;5062833;28;20204;-67
2023/08/20 05:51:34;;;;;;;10.40;5.45;;;17.10;99.90;;;;;;5026366;28;20227;-67
2023/08/20 05:54:01;;;;;;;7.95;5.55;;;17.10;99.90;;;;;;5068256;28;20203;-67
2023/08/20 05:56:28;;;;;;;10.43;6.05;;;17.20;99.90;;;;;;5065267;28;20216;-67
2023/08/20 05:58:55;;;;;;;8.70;5.68;;;17.30;99.90;;;;;;5064560;28;20188;-67
2023/08/20 06:01:22;;;;;;;8.07;5.60;;;17.40;99.90;;;;;;5060415;28;20200;-68
2023/08/20 06:03:50;;;;;;;10.05;6.03;;;17.50;99.90;;;;;;5055537;28;20541;-68
2023/08/20 06:06:17;;;;;;;10.07;5.35;;;17.40;99.90;;;;;;5025911;28;20227;-67
2023/08/20 06:08:44;;;;;;;9.93;5.50;;;17.50;99.90;;;;;;5060895;28;20192;-68
2023/08/20 06:11:11;;;;;;;12.50;5.93;;;17.60;99.90;;;;;;5065695;28;20551;-67
2023/08/20 06:13:38;;;;;;;6.97;5.50;;;17.60;99.90;;;;;;5061969;28;20189;-67
2023/08/20 06:16:05;;;;;;;7.43;5.97;;;17.60;99.90;;;;;;5060861;28;20282;-67
2023/08/20 06:18:33;;;;;;;7.30;5.63;;;17.70;99.90;;;;;;5060026;28;20206;-67
2023/08/20 06:21:01;;;;;;;10.05;6.40;;;17.60;99.90;;;;;;5059959;28;20400;-67
2023/08/20 06:23:28;;;;;;;11.20;5.97;;;17.80;99.90;;;;;;5025812;28;20219;-68
2023/08/20 06:25:54;;;;;;;8.63;5.88;;;17.80;99.90;;;;;;5059361;28;20741;-68
2023/08/20 06:28:21;;;;;;;11.15;5.95;;;17.90;99.90;;;;;;5065916;28;20204;-68
2023/08/20 06:30:48;;;;;;;9.35;6.70;;;17.90;99.90;;;;;;5057929;28;20212;-68
2023/08/20 06:33:15;;;;;;;12.15;6.75;;;18.00;99.90;;;;;;5065133;28;20192;-68
2023/08/20 06:35:42;;;;;;;12.68;7.22;;;18.20;99.90;;;;;;5061716;28;20688;-67
2023/08/20 06:38:10;;;;;;;12.18;8.02;;;18.10;99.90;;;;;;5027594;28;20208;-67
2023/08/20 06:40:37;;;;;;;12.45;7.78;;;18.10;99.90;;;;;;5064171;28;20230;-68
2023/08/20 06:43:04;;;;;;;11.23;7.32;;;18.20;99.90;;;;;;5057331;28;20202;-67
2023/08/20 06:45:31;;;;;;;12.35;8.00;;;18.20;99.90;;;;;;5057799;28;20196;-68
2023/08/20 06:47:58;;;;;;;12.30;7.93;;;18.30;99.90;;;;;;5062881;28;20195;-68
2023/08/20 06:50:25;;;;;;;11.98;8.82;;;18.30;99.90;;;;;;5059973;28;20193;-68
2023/08/20 06:52:52;;;;;;;13.82;9.02;;;18.40;99.90;;;;;;5023376;28;20681;-68
2023/08/20 06:55:20;;;;;;;16.27;8.32;;;18.40;99.90;;;;;;5064537;28;20192;-67
2023/08/20 06:57:47;;;;;;;19.65;10.55;;;18.50;99.90;;;;;;5059270;28;20196;-68
2023/08/20 07:00:14;;;;;;;12.40;10.45;;;18.50;99.90;;;;;;5065585;28;20511;-68
2023/08/20 07:02:40;;;;;;;13.95;9.90;;;18.50;99.90;;;;;;5059832;28;20200;-68
2023/08/20 07:05:09;;;;;;;11.05;8.02;;;18.60;99.90;;;;;;5058864;28;20419;-68
2023/08/20 07:07:36;;;;;;;13.30;7.05;;;18.60;99.90;;;;;;5057499;28;20228;-68
2023/08/20 07:10:04;;;;;;;11.07;6.43;;;18.60;99.90;;;;;;5036932;28;20717;-68
2023/08/20 07:12:32;;;;;;;9.07;5.85;;;18.70;99.90;;;;;;5062257;28;20209;-68
2023/08/20 07:14:59;;;;;;;13.70;6.30;;;18.70;99.90;;;;;;5061878;28;20708;-67
2023/08/20 07:17:25;;;;;;;13.07;7.30;;;18.80;99.90;;;;;;5066992;28;20564;-68
2023/08/20 07:19:52;;;;;;;11.82;7.18;;;18.80;99.90;;;;;;5061740;28;20313;-68
2023/08/20 07:22:19;;;;;;;12.98;7.88;;;18.90;99.90;;;;;;5067702;28;20198;-68
2023/08/20 07:24:46;;;;;;;8.82;6.65;;;18.90;99.90;;;;;;5025441;28;20207;-68
2023/08/20 07:27:12;;;;;;;11.23;7.10;;;18.90;99.90;;;;;;5067339;28;20200;-68
2023/08/20 07:29:42;;;;;;;10.98;6.38;;;19.00;99.90;;;;;;5070918;28;20200;-68
2023/08/20 07:32:10;;;;;;;12.70;6.18;;;19.00;99.90;;;;;;5063467;28;20211;-68
2023/08/20 07:34:36;;;;;;;9.73;5.95;;;18.80;99.90;;;;;;5064217;28;20239;-67
2023/08/20 07:37:04;;;;;;;10.23;5.85;;;19.10;99.90;;;;;;5041616;28;20393;-68
2023/08/20 07:39:31;;;;;;;8.27;5.28;;;19.10;99.90;;;;;;5017360;28;20231;-68
2023/08/20 07:41:58;;;;;;;11.35;6.00;;;19.10;99.90;;;;;;5062096;28;20441;-68
2023/08/20 07:44:25;;;;;;;13.68;5.97;;;19.20;99.90;;;;;;5064892;28;20203;-67
2023/08/20 07:46:54;;;;;;;10.57;5.28;;;19.20;99.90;;;;;;5059020;28;20291;-68
2023/08/20 07:49:21;;;;;;;13.43;5.82;;;19.20;99.90;;;;;;5069413;28;20200;-68
2023/08/20 07:51:48;;;;;;;9.77;4.65;;;19.30;99.90;;;;;;5065569;28;20196;-68
2023/08/20 07:54:15;;;;;;;9.00;5.05;;;19.30;99.90;;;;;;5032512;28;20217;-68
2023/08/20 07:56:41;;;;;;;9.52;4.45;;;19.40;99.90;;;;;;5060312;28;20201;-68
2023/08/20 07:59:08;;;;;;;11.63;5.25;;;19.40;99.90;;;;;;5066026;28;20411;-68
2023/08/20 08:01:35;;;;;;;11.95;5.20;;;19.50;99.90;;;;;;5053149;28;20236;-68
2023/08/20 08:04:03;;;;;;;5.63;4.50;;;19.50;99.90;;;;;;5067922;28;20336;-68
2023/08/20 08:06:30;;;;;;;12.20;4.55;;;19.50;99.90;;;;;;5059560;28;20576;-68
2023/08/20 08:08:57;;;;;;;9.38;4.05;;;19.60;99.90;;;;;;5027665;28;20423;-68
2023/08/20 08:11:24;;;;;;;11.75;4.47;;;19.60;99.90;;;;;;5070747;28;20211;-68
2023/08/20 08:13:51;;;;;;;6.88;3.75;;;19.70;99.90;;;;;;5062353;28;20754;-67
2023/08/20 08:16:17;;;;;;;8.30;2.92;;;19.70;99.90;;;;;;5061919;27;20201;-67
2023/08/20 08:18:44;;;;;;;11.23;2.97;;;19.70;99.90;;;;;;5065130;28;20201;-67
2023/08/20 08:21:12;;;;;;;7.13;2.97;;;19.70;99.90;;;;;;5061355;28;20537;-68
2023/08/20 08:23:39;;;;;;;9.23;2.88;;;19.70;99.90;;;;;;5037809;28;20858;-68
2023/08/20 08:26:06;;;;;;;4.57;2.70;;;19.80;99.90;;;;;;5040234;28;20410;-68
2023/08/20 08:28:33;;;;;;;7.28;2.65;;;19.80;99.90;;;;;;5061042;28;20283;-68
2023/08/20 08:30:59;;;;;;;7.65;2.92;;;19.80;99.90;;;;;;5062084;28;20192;-68
2023/08/20 08:33:26;;;;;;;8.88;2.90;;;19.80;99.90;;;;;;5063331;28;20275;-68
2023/08/20 08:35:53;;;;;;;8.07;2.75;;;19.80;99.90;;;;;;5058883;28;20422;-68
2023/08/20 08:38:21;;;;;;;7.03;2.65;;;19.90;99.90;;;;;;5055134;28;20192;-68
2023/08/20 08:40:50;;;;;;;4.35;2.58;;;20.00;99.90;;;;;;5023595;28;20240;-68
2023/08/20 08:43:17;;;;;;;4.43;2.47;;;20.00;99.90;;;;;;5062685;28;20672;-68
2023/08/20 08:45:48;;;;;;;7.28;2.72;;;20.00;99.90;;;;;;5061394;28;20201;-68
2023/08/20 08:48:15;;;;;;;5.47;2.38;;;20.00;99.90;;;;;;5067439;28;20214;-68
2023/08/20 08:50:42;;;;;;;8.85;3.03;;;20.00;99.90;;;;;;5063924;28;20680;-68
2023/08/20 08:53:09;;;;;;;7.82;2.72;;;20.00;99.90;;;;;;5053003;28;20300;-68
2023/08/20 08:55:38;;;;;;;6.82;2.88;;;20.10;99.90;;;;;;5028449;28;20576;-68
2023/08/20 08:58:05;;;;;;;14.93;2.65;;;20.10;99.90;;;;;;5067290;28;20227;-67
2023/08/20 09:00:32;;;;;;;6.00;2.83;;;20.20;99.90;;;;;;5063514;28;20219;-67
2023/08/20 09:03:00;;;;;;;7.57;3.80;;;20.20;99.90;;;;;;5063615;28;20502;-68
2023/08/20 09:05:27;;;;;;;11.35;3.33;;;20.20;99.90;;;;;;5060101;28;20200;-68
2023/08/20 09:07:57;;;;;;;6.97;3.00;;;20.30;99.90;;;;;;5053626;28;20249;-68
2023/08/20 09:10:26;;;;;;;8.43;3.03;;;20.30;99.90;;;;;;5063286;28;20208;-67
2023/08/20 09:12:55;;;;;;;7.32;2.85;;;20.40;99.90;;;;;;5022069;28;20208;-68
2023/08/20 09:15:22;;;;;;;7.63;2.90;;;20.50;99.90;;;;;;5063033;28;20684;-68
2023/08/20 09:17:49;;;;;;;7.15;3.13;;;20.50;99.90;;;;;;5061150;28;20434;-68
2023/08/20 09:20:15;;;;;;;13.45;3.35;;;20.50;99.90;;;;;;5062487;28;20220;-68
2023/08/20 09:22:50;;;;;;;6.32;2.55;;;20.50;99.90;;;;;;5060568;28;20214;-68
2023/08/20 09:25:17;;;;;;;9.73;2.92;;;20.60;99.90;;;;;;5067201;28;20699;-68
2023/08/20 09:27:44;;;;;;;9.82;3.10;;;20.80;99.90;;;;;;5024044;28;20205;-68
2023/08/20 09:30:20;;;;;;;7.50;2.83;;;20.90;99.90;;;;;;5062476;28;20872;-68
2023/08/20 09:33:03;;;;;;;7.13;2.80;;;20.90;99.90;;;;;;5055056;28;20977;-68
2023/08/20 09:35:29;;;;;;;8.98;2.78;;;20.90;99.90;;;;;;5066437;28;20216;-68
2023/08/20 09:38:00;;;;;;;10.30;3.15;;;20.90;99.90;;;;;;5056387;28;20245;-68
2023/08/20 09:40:27;;;;;;;7.50;2.67;;;21.00;99.90;;;;;;5052990;28;20228;-68
2023/08/20 09:42:55;;;;;;;8.70;3.20;;;21.10;99.90;;;;;;5025300;28;20411;-67
2023/08/20 09:45:26;;;;;;;8.30;2.58;;;21.10;99.90;;;;;;5066596;28;20641;-68
2023/08/20 09:47:56;;;;;;;10.82;2.80;;;21.10;99.90;;;;;;5058410;28;20712;-68
2023/08/20 09:50:24;;;;;;;7.00;2.58;;;21.20;99.90;;;;;;5066024;28;20571;-68
2023/08/20 09:52:58;;;;;;;4.25;2.50;;;21.30;99.90;;;;;;5055877;28;20200;-68
2023/08/20 09:55:30;;;;;;;7.53;2.60;;;21.40;99.90;;;;;;5056590;28;20219;-68
2023/08/20 09:57:59;;;;;;;6.43;2.60;;;21.40;99.90;;;;;;5020685;28;20825;-68
2023/08/20 10:00:28;;;;;;;6.63;2.90;;;21.40;99.90;;;;;;5062027;28;20426;-68
2023/08/20 10:02:57;;;;;;;8.30;2.53;;;21.50;99.90;;;;;;5056074;28;20204;-68
2023/08/20 10:05:24;;;;;;;7.03;3.13;;;21.60;99.90;;;;;;5064501;28;20601;-68
2023/08/20 10:07:51;;;;;;;10.18;2.90;;;21.70;99.90;;;;;;5056016;28;20749;-68
2023/08/20 10:10:19;;;;;;;5.13;2.17;;;21.70;99.90;;;;;;5054971;28;20192;-68
2023/08/20 10:12:48;;;;;;;8.55;2.55;;;21.80;99.90;;;;;;5054908;28;20200;-68
2023/08/20 10:15:15;;;;;;;6.28;2.60;;;21.80;99.90;;;;;;5025794;28;20250;-68
2023/08/20 10:17:45;;;;;;;10.18;3.28;;;21.80;99.90;;;;;;5057060;28;20211;-67
2023/08/20 10:20:15;;;;;;;10.38;2.80;;;21.90;99.90;;;;;;5064185;28;20204;-67
2023/08/20 10:22:43;;;;;;;5.00;2.40;;;22.00;99.90;;;;;;5059596;28;20207;-68
2023/08/20 10:25:11;;;;;;;4.43;2.30;;;22.10;99.90;;;;;;5052625;28;20204;-68
2023/08/20 10:27:40;;;;;;;10.82;2.50;;;22.20;99.90;;;;;;5059627;28;20188;-67
2023/08/20 10:30:15;;;;;;;5.10;2.20;;;22.20;99.90;;;;;;5023180;28;22020;-68
2023/08/20 10:32:48;;;;;;;6.72;2.33;;;22.20;99.90;;;;;;5057477;28;20276;-67
2023/08/20 10:35:17;;;;;;;5.47;2.60;;;22.10;99.90;;;;;;5060935;28;20212;-67
2023/08/20 10:38:04;;;;;;;4.97;2.40;;;22.10;99.90;;;;;;5060362;28;20203;-67
2023/08/20 10:40:52;;;;;;;3.38;2.33;;;22.10;99.90;;;;;;5063426;28;20220;-67
2023/08/20 10:43:27;;;;;;;6.60;2.53;;;22.20;99.90;;;;;;5062333;28;20206;-67
2023/08/20 10:46:15;;;;;;;8.07;2.95;;;22.20;99.90;;;;;;5022034;28;20756;-68
2023/08/20 10:48:46;;;;;;;4.38;2.20;;;22.30;99.90;;;;;;5062140;28;21080;-67
2023/08/20 10:51:14;;;;;;;17.42;2.45;;;22.30;99.90;;;;;;5059179;28;20199;-67
2023/08/20 10:53:44;;;;;;;7.72;2.80;;;22.40;99.90;;;;;;5061436;28;20662;-67
2023/08/20 10:56:13;;;;;;;4.32;2.35;;;22.50;99.90;;;;;;5062487;28;20705;-67
2023/08/20 10:58:42;;;;;;;7.00;2.10;;;22.50;99.90;;;;;;5053676;28;20574;-67
2023/08/20 11:01:17;;;;;;;8.30;2.28;;;22.60;99.90;;;;;;5030370;28;20485;-67
2023/08/20 11:03:48;;;;;;;10.40;2.65;;;22.60;99.90;;;;;;5061627;28;20239;-67
2023/08/20 11:06:16;;;;;;;6.72;2.60;;;22.60;99.90;;;;;;5069253;28;20340;-67
2023/08/20 11:08:43;;;;;;;5.10;2.30;;;22.60;99.90;;;;;;5058962;28;20208;-67
2023/08/20 11:11:11;;;;;;;5.68;2.40;;;22.70;99.90;;;;;;5063525;28;20468;-67
2023/08/20 11:13:38;;;;;;;7.15;2.05;;;22.70;99.90;;;;;;5054054;28;20551;-67
2023/08/20 11:16:07;;;;;;;5.95;2.33;;;22.80;99.90;;;;;;5065188;28;20201;-67
2023/08/20 11:18:34;;;;;;;6.22;2.78;;;22.90;99.90;;;;;;5027725;28;20700;-67
2023/08/20 11:21:03;;;;;;;6.57;2.38;;;22.90;99.90;;;;;;5065196;28;20383;-67
2023/08/20 11:23:31;;;;;;;7.20;3.13;;;23.00;99.90;;;;;;5063510;28;20677;-67
2023/08/20 11:25:58;;;;;;;5.72;2.55;;;23.10;99.90;;;;;;5061687;28;20193;-67
2023/08/20 11:28:27;;;;;;;7.10;2.25;;;23.10;99.90;;;;;;5057670;28;20207;-67
2023/08/20 11:30:55;;;;;;;8.07;2.60;;;23.10;99.90;;;;;;5062038;28;20458;-67
2023/08/20 11:33:23;;;;;;;6.55;2.03;;;23.20;99.90;;;;;;5032782;28;20208;-67
2023/08/20 11:35:50;;;;;;;3.83;2.25;;;23.20;99.90;;;;;;5064231;28;20278;-67
2023/08/20 11:38:18;;;;;;;7.97;2.20;;;23.20;99.90;;;;;;5064889;28;20196;-67
2023/08/20 11:40:45;;;;;;;5.88;2.25;;;23.20;99.90;;;;;;5062765;28;20189;-67
2023/08/20 11:43:12;;;;;;;6.07;2.50;;;23.20;99.90;;;;;;5053704;28;20204;-67
2023/08/20 11:45:47;;;;;;;5.13;2.45;;;23.20;99.90;;;;;;5063388;28;20200;-67
2023/08/20 11:48:14;;;;;;;6.60;2.63;;;23.30;99.90;;;;;;5067357;28;20230;-67
2023/08/20 11:50:41;;;;;;;5.22;2.10;;;23.30;99.90;;;;;;5025090;28;20577;-67
2023/08/20 11:53:09;;;;;;;6.05;2.30;;;23.30;99.90;;;;;;5062222;28;20443;-67
2023/08/20 11:55:39;;;;;;;6.80;2.13;;;23.40;99.90;;;;;;5065045;28;20200;-67
2023/08/20 11:58:06;;;;;;;5.15;2.10;;;23.40;99.90;;;;;;5054882;28;20506;-67
2023/08/20 12:00:33;;;;;;;4.30;2.28;;;23.40;99.90;;;;;;5067898;28;20608;-67
2023/08/20 12:03:00;;;;;;;3.75;2.15;;;23.50;99.90;;;;;;5062304;28;20320;-67
2023/08/20 12:05:30;;;;;;;4.28;1.85;;;23.60;99.90;;;;;;5028124;28;20200;-67
2023/08/20 12:07:58;;;;;;;6.72;2.30;;;23.60;99.90;;;;;;5063672;28;20224;-67
2023/08/20 12:10:26;;;;;;;4.88;1.90;;;23.60;99.90;;;;;;5062938;28;20185;-67
2023/08/20 12:12:55;;;;;;;3.85;1.83;;;23.50;99.90;;;;;;5059322;28;20341;-67
2023/08/20 12:15:23;;;;;;;6.95;2.47;;;23.50;99.90;;;;;;5052700;28;20201;-67
2023/08/20 12:18:00;;;;;;;3.00;2.03;;;23.60;99.90;;;;;;5060400;28;20208;-67
2023/08/20 12:20:31;;;;;;;4.88;1.50;;;23.60;99.90;;;;;;5067164;28;20202;-67
2023/08/20 12:23:02;;;;;;;3.40;1.73;;;23.60;99.90;;;;;;5024747;28;20785;-67
2023/08/20 12:25:31;;;;;;;2.58;1.30;;;23.70;99.90;;;;;;5066144;28;20562;-67
2023/08/20 12:28:00;;;;;;;4.43;1.90;;;23.70;99.90;;;;;;5061538;28;20203;-67
2023/08/20 12:30:27;;;;;;;3.45;1.55;;;23.60;99.90;;;;;;5054626;28;20201;-67
2023/08/20 12:32:54;;;;;;;3.33;1.60;;;23.70;99.90;;;;;;5059346;28;20312;-67
2023/08/20 12:35:20;;;;;;;6.07;2.00;;;23.70;99.90;;;;;;5069797;28;20222;-67
2023/08/20 12:37:47;;;;;;;5.90;1.75;;;23.70;99.90;;;;;;5022915;28;20207;-67
2023/08/20 12:40:14;;;;;;;5.53;1.52;;;23.70;99.90;;;;;;5064409;28;20204;-67
2023/08/20 12:42:41;;;;;;;1.70;1.60;;;23.80;99.90;;;;;;5060309;28;20226;-67
2023/08/20 12:45:12;;;;;;;5.70;1.70;;;23.80;99.90;;;;;;5053119;28;20351;-67
2023/08/20 12:47:39;;;;;;;2.20;1.80;;;23.80;99.90;;;;;;5062128;28;20200;-67
2023/08/20 12:50:07;;;;;;;3.17;1.55;;;23.80;99.90;;;;;;5057141;28;20196;-66